Time;durP1;ratioP1;P1;durP2;ratioP2;P2;SDS_P1;SDS_P2;PMS_P1;PMS_P2;Temp;Humidity;BMP_temperature;BMP_pressure;BME280_temperature;BME280_humidity;BME280_pressure;Samples;Min_cycle;Max_cycle;Signal;HPM_P1;HPM_P2
2022/06/21 00:02:12;;;;;;;0.40;0.30;;;18.10;99.90;;;;;;5096396;28;20950;-74
2022/06/21 00:04:39;;;;;;;0.50;0.30;;;18.00;99.90;;;;;;5096727;28;20865;-74
2022/06/21 00:07:07;;;;;;;0.40;0.20;;;17.90;1.00;;;;;;5093943;28;20503;-73
2022/06/21 00:09:34;;;;;;;0.50;0.30;;;18.10;1.00;;;;;;5094900;28;20819;-73
2022/06/21 00:12:01;;;;;;;0.70;0.30;;;17.90;1.00;;;;;;5096639;28;20811;-73
2022/06/21 00:14:28;;;;;;;0.90;0.30;;;17.90;1.00;;;;;;5097154;28;20616;-73
2022/06/21 00:16:56;;;;;;;0.50;0.30;;;18.00;1.00;;;;;;5096593;28;20512;-73
2022/06/21 00:19:26;;;;;;;0.50;0.30;;;18.10;99.90;;;;;;5097224;28;20790;-74
2022/06/21 00:21:53;;;;;;;0.60;0.33;;;18.00;1.00;;;;;;5096756;28;20528;-74
2022/06/21 00:24:20;;;;;;;0.50;0.30;;;17.90;1.00;;;;;;5096710;28;20915;-74
2022/06/21 00:26:47;;;;;;;0.70;0.40;;;18.00;1.00;;;;;;5096328;28;20559;-73
2022/06/21 00:29:15;;;;;;;0.50;0.30;;;17.90;1.00;;;;;;5096977;28;20465;-73
2022/06/21 00:31:46;;;;;;;0.50;0.30;;;18.00;1.00;;;;;;5097457;28;20515;-74
2022/06/21 00:34:17;;;;;;;0.50;0.30;;;17.90;1.00;;;;;;5096323;28;20911;-74
2022/06/21 00:36:45;;;;;;;0.43;0.30;;;18.10;1.00;;;;;;5095836;28;20552;-74
2022/06/21 00:39:16;;;;;;;0.50;0.30;;;18.10;62.30;;;;;;5094655;28;20442;-74
2022/06/21 00:41:45;;;;;;;1.10;0.30;;;18.00;1.00;;;;;;5095894;28;20481;-74
2022/06/21 00:44:16;;;;;;;0.50;0.30;;;18.00;99.90;;;;;;5095955;28;20468;-73
2022/06/21 00:46:46;;;;;;;0.60;0.40;;;18.10;99.90;;;;;;5096231;28;20445;-74
2022/06/21 00:49:20;;;;;;;0.73;0.30;;;18.20;1.00;;;;;;5095678;28;20519;-74
2022/06/21 00:51:48;;;;;;;0.50;0.30;;;18.20;1.00;;;;;;5095306;28;20503;-73
2022/06/21 00:54:20;;;;;;;0.70;0.30;;;18.00;1.00;;;;;;5095563;28;20509;-73
2022/06/21 00:56:52;;;;;;;0.50;0.20;;;17.90;93.90;;;;;;5095306;28;20961;-73
2022/06/21 00:59:22;;;;;;;0.43;0.30;;;17.90;1.00;;;;;;5096412;28;20884;-73
2022/06/21 01:01:51;;;;;;;2.10;0.30;;;18.00;99.90;;;;;;5096656;28;20473;-73
2022/06/21 01:04:27;;;;;;;0.40;0.20;;;18.10;1.00;;;;;;5096809;28;20532;-73
2022/06/21 01:06:58;;;;;;;0.50;0.40;;;18.20;1.00;;;;;;5097572;28;20484;-74
2022/06/21 01:09:31;;;;;;;0.40;0.30;;;18.20;1.00;;;;;;5096404;28;20537;-74
2022/06/21 01:12:03;;;;;;;0.80;0.30;;;18.20;99.90;;;;;;5096911;28;20453;-74
2022/06/21 01:14:33;;;;;;;0.70;0.30;;;18.20;99.90;;;;;;5095823;28;20584;-73
2022/06/21 01:17:00;;;;;;;0.57;0.20;;;18.20;99.90;;;;;;5095638;28;20533;-74
2022/06/21 01:19:38;;;;;;;0.40;0.20;;;18.20;99.90;;;;;;5095636;28;20536;-73
2022/06/21 01:22:18;;;;;;;0.90;0.27;;;18.00;99.90;;;;;;5095312;28;20449;-74
2022/06/21 01:24:57;;;;;;;0.40;0.20;;;17.90;99.90;;;;;;5095475;28;20488;-74
2022/06/21 01:27:27;;;;;;;0.40;0.30;;;17.80;99.90;;;;;;5095230;28;20564;-74
2022/06/21 01:29:54;;;;;;;0.83;0.30;;;17.80;99.90;;;;;;5096325;28;20438;-74
2022/06/21 01:32:21;;;;;;;0.50;0.30;;;17.70;99.90;;;;;;5096619;28;20864;-74
2022/06/21 01:34:49;;;;;;;0.47;0.30;;;17.80;99.90;;;;;;5096465;28;20521;-74
2022/06/21 01:37:20;;;;;;;0.70;0.30;;;17.90;99.90;;;;;;5095974;28;20500;-74
2022/06/21 01:40:02;;;;;;;0.60;0.30;;;18.00;99.90;;;;;;5096320;28;20491;-74
2022/06/21 01:42:33;;;;;;;0.60;0.30;;;18.10;99.90;;;;;;5096284;28;20481;-74
2022/06/21 01:45:04;;;;;;;0.50;0.40;;;18.20;99.90;;;;;;5096700;28;20529;-74
2022/06/21 01:47:39;;;;;;;0.50;0.30;;;18.20;99.90;;;;;;5097089;28;20742;-73
2022/06/21 01:50:09;;;;;;;0.40;0.20;;;18.20;99.90;;;;;;5099525;28;20491;-73
2022/06/21 01:52:39;;;;;;;0.63;0.30;;;18.20;99.90;;;;;;5100732;28;20506;-73
2022/06/21 01:55:11;;;;;;;0.40;0.20;;;18.20;92.90;;;;;;5100645;28;20512;-73
2022/06/21 01:57:40;;;;;;;0.40;0.30;;;18.20;99.90;;;;;;5101169;28;20822;-74
2022/06/21 02:00:09;;;;;;;0.67;0.30;;;18.20;90.40;;;;;;5100364;28;20818;-74
2022/06/21 02:02:41;;;;;;;0.93;0.30;;;18.10;99.90;;;;;;5099502;28;20437;-73
2022/06/21 02:05:13;;;;;;;0.50;0.30;;;18.10;53.50;;;;;;5102259;28;20429;-74
2022/06/21 02:07:46;;;;;;;0.50;0.30;;;17.90;99.90;;;;;;5112543;28;20469;-74
2022/06/21 02:10:19;;;;;;;0.50;0.30;;;17.90;99.90;;;;;;5101178;28;20529;-74
2022/06/21 02:12:52;;;;;;;0.40;0.30;;;18.00;99.90;;;;;;5100390;28;20449;-74
2022/06/21 02:15:26;;;;;;;0.50;0.30;;;18.10;99.90;;;;;;5099949;28;20489;-74
2022/06/21 02:17:54;;;;;;;0.60;0.40;;;18.00;80.10;;;;;;5099776;28;20512;-74
2022/06/21 02:20:28;;;;;;;0.50;0.30;;;17.90;26.50;;;;;;5099177;28;20592;-74
2022/06/21 02:22:55;;;;;;;0.40;0.30;;;17.80;99.90;;;;;;5099199;28;20507;-74
2022/06/21 02:25:25;;;;;;;0.50;0.30;;;17.60;99.90;;;;;;5098885;28;20514;-75
2022/06/21 02:28:00;;;;;;;0.57;0.40;;;17.60;99.90;;;;;;5098078;28;20872;-74
2022/06/21 02:30:29;;;;;;;0.40;0.30;;;17.60;99.90;;;;;;5097541;28;20448;-73
2022/06/21 02:32:59;;;;;;;0.60;0.30;;;17.70;99.90;;;;;;5097793;28;21006;-73
2022/06/21 02:35:30;;;;;;;0.50;0.30;;;17.50;97.20;;;;;;5097829;28;20478;-73
2022/06/21 02:38:00;;;;;;;0.73;0.50;;;17.50;99.90;;;;;;5098241;28;20510;-73
2022/06/21 02:40:31;;;;;;;0.60;0.30;;;17.50;99.90;;;;;;5098221;28;20445;-73
2022/06/21 02:43:05;;;;;;;0.73;0.30;;;17.60;99.90;;;;;;5098659;28;20449;-73
2022/06/21 02:45:36;;;;;;;1.90;0.40;;;17.50;44.60;;;;;;5098296;28;20541;-73
2022/06/21 02:48:09;;;;;;;0.50;0.40;;;17.20;38.00;;;;;;5098695;28;20461;-74
2022/06/21 02:50:41;;;;;;;0.60;0.30;;;17.20;99.90;;;;;;5098905;28;20535;-74
2022/06/21 02:53:15;;;;;;;0.87;0.40;;;17.30;99.90;;;;;;5099040;28;20763;-73
2022/06/21 02:55:46;;;;;;;1.67;0.30;;;17.00;99.90;;;;;;5098572;28;20892;-73
2022/06/21 02:58:21;;;;;;;0.50;0.40;;;17.00;99.90;;;;;;5099550;28;20469;-74
2022/06/21 03:00:48;;;;;;;0.50;0.30;;;16.90;99.90;;;;;;5097612;28;20445;-74
2022/06/21 03:03:20;;;;;;;0.40;0.30;;;16.80;99.90;;;;;;5099125;28;20488;-74
2022/06/21 03:05:51;;;;;;;0.50;0.30;;;16.70;99.90;;;;;;5098466;28;20477;-73
2022/06/21 03:08:19;;;;;;;0.57;0.30;;;16.70;99.90;;;;;;5099040;28;20784;-73
2022/06/21 03:10:49;;;;;;;0.60;0.37;;;16.80;99.90;;;;;;5098938;28;20489;-74
2022/06/21 03:13:21;;;;;;;0.70;0.47;;;16.90;99.90;;;;;;5098807;28;20801;-73
2022/06/21 03:15:53;;;;;;;0.50;0.40;;;16.90;99.90;;;;;;5080697;28;20534;-73
2022/06/21 03:18:24;;;;;;;0.50;0.30;;;16.70;99.90;;;;;;5098516;28;20560;-73
2022/06/21 03:20:52;;;;;;;0.80;0.30;;;16.50;99.90;;;;;;5098685;28;20481;-74
2022/06/21 03:23:20;;;;;;;0.70;0.47;;;16.50;99.90;;;;;;5098489;28;20450;-73
2022/06/21 03:25:51;;;;;;;0.50;0.30;;;16.40;1.00;;;;;;5098073;28;20485;-73
2022/06/21 03:28:27;;;;;;;0.50;0.30;;;16.40;1.00;;;;;;5098569;28;20499;-73
2022/06/21 03:31:00;;;;;;;0.73;0.40;;;16.60;1.00;;;;;;5098177;28;20965;-73
2022/06/21 03:33:28;;;;;;;0.60;0.40;;;17.00;99.90;;;;;;5098270;28;20538;-74
2022/06/21 03:35:56;;;;;;;0.50;0.30;;;17.10;99.90;;;;;;5098795;28;20488;-74
2022/06/21 03:38:23;;;;;;;0.40;0.30;;;17.10;99.90;;;;;;5098231;28;20494;-74
2022/06/21 03:43:57;;;;;;;0.50;0.30;;;17.40;99.90;;;;;;4996672;28;20545;-74
2022/06/21 03:46:28;;;;;;;0.40;0.23;;;17.30;99.90;;;;;;4996373;28;20482;-73
2022/06/21 03:49:02;;;;;;;0.50;0.30;;;17.20;99.90;;;;;;5048104;28;20528;-74
2022/06/21 03:51:35;;;;;;;0.90;0.30;;;17.20;99.90;;;;;;5096356;28;20494;-71
2022/06/21 03:54:08;;;;;;;0.40;0.30;;;17.20;99.90;;;;;;5095984;28;20481;-74
2022/06/21 03:56:41;;;;;;;0.80;0.40;;;17.40;99.90;;;;;;5096600;28;20441;-72
2022/06/21 03:59:21;;;;;;;1.00;0.33;;;17.40;99.90;;;;;;5097143;28;20536;-72
2022/06/21 04:01:54;;;;;;;0.97;0.40;;;17.40;99.90;;;;;;5097654;28;20789;-73
2022/06/21 04:04:29;;;;;;;0.97;0.40;;;17.40;64.20;;;;;;5097474;28;20560;-73
2022/06/21 04:07:02;;;;;;;0.63;0.40;;;17.60;45.70;;;;;;5096646;28;20536;-73
2022/06/21 04:09:34;;;;;;;0.73;0.33;;;17.70;1.00;;;;;;5096664;28;20446;-73
2022/06/21 04:12:07;;;;;;;0.83;0.40;;;17.70;1.00;;;;;;5096468;28;20568;-73
2022/06/21 04:14:40;;;;;;;0.50;0.37;;;17.40;1.00;;;;;;5096743;28;20509;-73
2022/06/21 04:17:13;;;;;;;0.60;0.40;;;17.10;1.00;;;;;;5096585;28;20530;-72
2022/06/21 04:19:45;;;;;;;0.63;0.40;;;17.20;1.00;;;;;;5096723;28;20911;-74
2022/06/21 04:22:20;;;;;;;0.60;0.40;;;17.30;1.00;;;;;;5096643;28;20453;-74
2022/06/21 04:24:55;;;;;;;0.70;0.30;;;17.40;1.00;;;;;;5096121;28;20472;-74
2022/06/21 04:27:27;;;;;;;0.87;0.40;;;17.50;1.00;;;;;;5096927;28;20546;-74
2022/06/21 04:30:02;;;;;;;0.70;0.40;;;17.50;1.00;;;;;;5097064;28;20430;-72
2022/06/21 04:32:31;;;;;;;0.60;0.40;;;17.70;1.00;;;;;;5097307;28;20509;-74
2022/06/21 04:35:03;;;;;;;0.70;0.40;;;17.60;1.00;;;;;;5096590;28;20564;-73
2022/06/21 04:37:36;;;;;;;0.60;0.50;;;17.40;1.00;;;;;;5097059;28;20480;-73
2022/06/21 04:40:06;;;;;;;0.40;0.30;;;17.40;1.00;;;;;;5097379;28;20485;-72
2022/06/21 04:42:37;;;;;;;0.63;0.40;;;17.60;1.00;;;;;;5097296;28;20763;-73
2022/06/21 04:45:14;;;;;;;0.80;0.40;;;17.80;1.00;;;;;;5096797;28;20915;-73
2022/06/21 04:47:47;;;;;;;0.47;0.40;;;17.90;1.00;;;;;;5096497;28;20920;-73
2022/06/21 04:50:22;;;;;;;1.47;0.47;;;17.80;1.00;;;;;;5096828;28;20442;-73
2022/06/21 04:52:57;;;;;;;0.70;0.47;;;17.70;1.00;;;;;;5095065;28;20556;-72
2022/06/21 04:55:31;;;;;;;0.70;0.40;;;17.60;1.00;;;;;;5095133;28;20629;-73
2022/06/21 04:57:58;;;;;;;0.80;0.40;;;17.50;1.00;;;;;;5095794;28;20510;-73
2022/06/21 05:00:27;;;;;;;0.63;0.40;;;17.50;1.00;;;;;;5094968;28;20540;-74
2022/06/21 05:02:58;;;;;;;0.90;0.40;;;17.80;1.00;;;;;;5096343;28;20897;-74
2022/06/21 05:05:29;;;;;;;1.30;0.47;;;17.90;1.00;;;;;;5096585;28;20441;-73
2022/06/21 05:08:02;;;;;;;0.70;0.40;;;17.90;1.00;;;;;;5096640;28;20749;-73
2022/06/21 05:10:32;;;;;;;0.70;0.40;;;17.80;1.00;;;;;;5096015;28;20511;-74
2022/06/21 05:13:01;;;;;;;0.73;0.40;;;17.80;1.00;;;;;;5094611;28;20611;-74
2022/06/21 05:15:34;;;;;;;1.00;0.60;;;17.70;1.00;;;;;;5094854;28;20572;-75
2022/06/21 05:18:07;;;;;;;1.67;0.40;;;17.70;1.00;;;;;;5095342;28;20485;-75
2022/06/21 05:20:37;;;;;;;0.50;0.30;;;17.80;1.00;;;;;;5094199;28;20474;-75
2022/06/21 05:23:06;;;;;;;0.40;0.30;;;18.00;1.00;;;;;;5092432;28;20614;-74
2022/06/21 05:25:37;;;;;;;0.50;0.30;;;18.00;1.00;;;;;;5093555;28;20481;-75
2022/06/21 05:28:14;;;;;;;0.80;0.47;;;18.10;1.00;;;;;;5094522;28;20453;-76
2022/06/21 05:30:48;;;;;;;0.53;0.30;;;18.30;1.00;;;;;;5093503;28;20942;-75
2022/06/21 05:33:20;;;;;;;1.30;0.40;;;18.50;1.00;;;;;;5094525;28;20474;-76
2022/06/21 05:35:48;;;;;;;0.63;0.33;;;18.40;1.00;;;;;;5094363;28;20572;-75
2022/06/21 05:38:21;;;;;;;0.90;0.50;;;18.50;1.00;;;;;;5094675;28;20473;-76
2022/06/21 05:40:54;;;;;;;0.83;0.40;;;18.60;1.00;;;;;;5091867;28;20678;-75
2022/06/21 05:43:31;;;;;;;0.90;0.40;;;18.60;1.00;;;;;;5093185;28;20495;-76
2022/06/21 05:46:02;;;;;;;0.60;0.40;;;18.70;1.00;;;;;;5085857;28;20533;-76
2022/06/21 05:48:32;;;;;;;0.63;0.37;;;18.90;1.00;;;;;;5094452;28;20445;-76
2022/06/21 05:51:02;;;;;;;0.67;0.50;;;19.20;1.00;;;;;;5093350;28;20442;-75
2022/06/21 05:53:32;;;;;;;0.50;0.40;;;19.20;1.00;;;;;;5098624;28;20886;-75
2022/06/21 05:56:01;;;;;;;0.60;0.50;;;19.10;1.00;;;;;;5096444;28;20558;-75
2022/06/21 05:58:32;;;;;;;0.70;0.40;;;19.20;1.00;;;;;;5093426;28;20897;-75
2022/06/21 06:01:08;;;;;;;1.37;0.40;;;19.20;1.00;;;;;;5093572;28;20457;-75
2022/06/21 06:03:42;;;;;;;0.53;0.30;;;19.10;1.00;;;;;;5091521;28;20452;-75
2022/06/21 06:06:14;;;;;;;1.43;0.50;;;19.10;1.00;;;;;;5091532;28;20456;-74
2022/06/21 06:08:45;;;;;;;0.93;0.50;;;19.10;1.00;;;;;;5092755;28;20567;-75
2022/06/21 06:11:22;;;;;;;0.90;0.30;;;18.90;1.00;;;;;;5093661;28;20545;-75
2022/06/21 06:13:51;;;;;;;0.50;0.30;;;18.90;1.00;;;;;;5094405;28;20498;-75
2022/06/21 06:16:35;;;;;;;0.40;0.40;;;18.90;1.00;;;;;;5093728;28;20596;-75
2022/06/21 06:19:06;;;;;;;0.50;0.30;;;18.90;1.00;;;;;;5094973;28;20473;-75
2022/06/21 06:21:39;;;;;;;0.50;0.30;;;18.80;1.00;;;;;;5095701;28;20434;-75
2022/06/21 06:24:15;;;;;;;0.50;0.30;;;18.90;1.00;;;;;;5094464;28;20760;-76
2022/06/21 06:26:45;;;;;;;0.67;0.40;;;18.70;1.00;;;;;;5094135;28;20485;-76
2022/06/21 06:29:18;;;;;;;0.87;0.60;;;18.50;1.00;;;;;;5092503;28;20474;-74
2022/06/21 06:31:52;;;;;;;0.70;0.40;;;18.40;1.00;;;;;;5093378;28;20963;-75
2022/06/21 06:34:22;;;;;;;0.80;0.43;;;18.50;1.00;;;;;;5093200;28;20445;-76
2022/06/21 06:36:53;;;;;;;0.60;0.40;;;18.60;1.00;;;;;;5096317;28;21015;-75
2022/06/21 06:39:23;;;;;;;0.70;0.40;;;18.80;1.00;;;;;;5094324;28;20767;-75
2022/06/21 06:41:54;;;;;;;0.70;0.47;;;18.90;1.00;;;;;;5096824;28;20456;-74
2022/06/21 06:44:22;;;;;;;0.50;0.40;;;18.80;1.00;;;;;;5095515;28;20548;-74
2022/06/21 06:46:53;;;;;;;0.60;0.40;;;18.90;1.00;;;;;;5095724;28;20456;-73
2022/06/21 06:49:23;;;;;;;0.80;0.50;;;18.90;1.00;;;;;;5096931;28;20475;-74
2022/06/21 06:52:00;;;;;;;0.50;0.40;;;18.90;1.00;;;;;;5098026;28;20449;-74
2022/06/21 06:54:40;;;;;;;0.43;0.37;;;18.80;1.00;;;;;;5099191;28;20600;-76
2022/06/21 06:57:18;;;;;;;1.17;0.40;;;18.80;1.00;;;;;;5095058;28;20465;-73
2022/06/21 06:59:45;;;;;;;0.70;0.50;;;18.90;1.00;;;;;;5095652;28;20479;-73
2022/06/21 07:02:22;;;;;;;0.70;0.50;;;19.10;1.00;;;;;;5095337;28;20553;-73
2022/06/21 07:04:57;;;;;;;0.97;0.47;;;19.20;1.00;;;;;;5096079;28;20923;-72
2022/06/21 07:07:29;;;;;;;1.53;0.40;;;19.40;1.00;;;;;;5092313;28;20538;-73
2022/06/21 07:10:04;;;;;;;2.93;0.50;;;19.70;1.00;;;;;;5094778;28;20477;-77
2022/06/21 07:12:31;;;;;;;0.60;0.40;;;19.80;1.00;;;;;;5095537;28;20456;-79
2022/06/21 07:14:59;;;;;;;1.20;0.57;;;19.80;1.00;;;;;;5096010;28;20877;-73
2022/06/21 07:17:32;;;;;;;0.70;0.40;;;19.70;1.00;;;;;;5095363;28;20584;-74
2022/06/21 07:20:00;;;;;;;1.43;0.53;;;20.00;1.00;;;;;;5086078;28;20486;-73
2022/06/21 07:22:31;;;;;;;1.53;0.60;;;20.20;1.00;;;;;;5089844;28;20592;-73
2022/06/21 07:25:05;;;;;;;0.60;0.40;;;20.40;1.00;;;;;;5090869;28;20469;-71
2022/06/21 07:27:37;;;;;;;1.83;0.40;;;20.40;1.00;;;;;;5085263;28;20477;-73
2022/06/21 07:30:06;;;;;;;2.50;1.07;;;20.60;1.00;;;;;;5088363;28;20446;-73
2022/06/21 07:32:41;;;;;;;1.10;0.50;;;20.50;1.00;;;;;;5076825;28;20576;-73
2022/06/21 07:35:12;;;;;;;1.03;0.40;;;20.70;1.00;;;;;;5082845;28;20910;-73
2022/06/21 07:37:43;;;;;;;0.90;0.43;;;21.00;1.00;;;;;;5096008;28;20544;-73
2022/06/21 07:40:15;;;;;;;0.80;0.50;;;21.30;1.00;;;;;;5094400;28;20477;-73
2022/06/21 07:42:48;;;;;;;0.90;0.50;;;21.30;1.00;;;;;;5094586;28;20453;-73
2022/06/21 07:45:22;;;;;;;3.63;0.50;;;21.40;1.00;;;;;;5093740;28;20554;-73
2022/06/21 07:48:00;;;;;;;0.70;0.60;;;21.20;1.00;;;;;;5094946;28;20938;-73
2022/06/21 07:50:34;;;;;;;1.10;0.53;;;21.20;1.00;;;;;;5086782;28;20481;-72
2022/06/21 07:53:12;;;;;;;2.17;0.50;;;21.40;1.00;;;;;;5093759;28;20898;-73
2022/06/21 07:55:42;;;;;;;0.70;0.40;;;21.00;1.00;;;;;;5084848;28;20907;-73
2022/06/21 07:58:15;;;;;;;1.10;0.40;;;21.10;1.00;;;;;;5096140;28;20481;-73
2022/06/21 08:06:44;;;;;;;0.70;0.50;;;21.20;1.00;;;;;;5088122;28;20469;-75
2022/06/21 08:09:34;;;;;;;2.27;0.50;;;21.30;1.00;;;;;;5088063;28;20450;-74
2022/06/21 08:12:04;;;;;;;2.10;1.00;;;21.20;1.00;;;;;;5086252;28;20920;-74
2022/06/21 08:14:34;;;;;;;1.70;0.80;;;21.20;1.00;;;;;;5087147;28;20451;-73
2022/06/21 08:17:09;;;;;;;0.93;0.50;;;21.30;1.00;;;;;;5082639;28;20192;-74
2022/06/21 08:19:43;;;;;;;0.70;0.50;;;21.30;1.00;;;;;;5087234;28;20472;-74
2022/06/21 08:22:14;;;;;;;1.57;0.50;;;21.40;1.00;;;;;;5089359;28;20483;-75
2022/06/21 08:24:47;;;;;;;2.00;0.60;;;21.40;1.00;;;;;;5091013;28;20933;-73
2022/06/21 08:27:22;;;;;;;0.70;0.40;;;21.00;1.00;;;;;;5089982;28;21100;-74
2022/06/21 08:29:54;;;;;;;2.07;0.60;;;20.90;1.00;;;;;;5083148;28;20444;-76
2022/06/21 08:32:28;;;;;;;1.33;0.40;;;21.10;1.00;;;;;;5072489;28;20457;-72
2022/06/21 08:35:00;;;;;;;1.20;0.70;;;21.40;1.00;;;;;;5084233;28;20450;-75
2022/06/21 08:37:35;;;;;;;0.60;0.40;;;21.50;1.00;;;;;;5091698;28;20544;-74
2022/06/21 08:40:20;;;;;;;0.70;0.50;;;21.40;1.00;;;;;;5089055;28;20476;-73
2022/06/21 08:43:26;;;;;;;0.70;0.50;;;21.50;1.00;;;;;;5082370;28;20566;-75
2022/06/21 08:46:31;;;;;;;1.37;0.50;;;21.70;1.00;;;;;;5046323;28;20978;-74
2022/06/21 08:49:39;;;;;;;0.70;0.47;;;21.80;1.00;;;;;;5051879;28;21093;-75
2022/06/21 08:52:52;;;;;;;0.70;0.50;;;21.80;1.00;;;;;;5053504;28;21064;-75
2022/06/21 08:55:29;;;;;;;1.43;0.50;;;21.70;1.00;;;;;;5047990;28;20893;-75
2022/06/21 08:58:10;;;;;;;1.10;0.60;;;21.30;1.00;;;;;;5087058;28;20544;-74
2022/06/21 09:00:47;;;;;;;0.60;0.50;;;21.60;1.00;;;;;;5088403;28;20439;-73
2022/06/21 09:03:35;;;;;;;3.90;0.50;;;21.60;1.00;;;;;;5091189;28;20437;-75
2022/06/21 09:06:15;;;;;;;0.87;0.60;;;21.80;1.00;;;;;;5092326;28;20258;-77
2022/06/21 09:09:04;;;;;;;0.97;0.50;;;21.60;1.00;;;;;;5091915;28;20456;-76
2022/06/21 09:11:39;;;;;;;1.10;0.50;;;21.70;1.00;;;;;;5071718;28;20459;-76
2022/06/21 09:17:39;;;;;;;1.00;0.60;;;21.80;1.00;;;;;;5079684;28;20708;-76
2022/06/21 09:20:27;;;;;;;0.70;0.50;;;22.00;1.00;;;;;;5082936;28;20451;-77
2022/06/21 09:23:06;;;;;;;0.80;0.60;;;22.10;1.00;;;;;;5072958;28;20841;-76
2022/06/21 09:25:45;;;;;;;0.70;0.60;;;22.30;1.00;;;;;;5073379;28;20435;-76
2022/06/21 09:28:29;;;;;;;0.60;0.50;;;22.30;1.00;;;;;;5073294;28;20919;-77
2022/06/21 09:31:01;;;;;;;0.70;0.57;;;22.30;1.00;;;;;;5080894;28;20469;-77
2022/06/21 09:33:37;;;;;;;0.60;0.50;;;22.20;1.00;;;;;;5093430;28;20438;-76
2022/06/21 09:36:11;;;;;;;1.13;0.50;;;22.00;1.00;;;;;;5071959;28;20445;-77
2022/06/21 09:38:48;;;;;;;0.97;0.57;;;22.00;1.00;;;;;;5090441;28;20507;-76
2022/06/21 09:41:22;;;;;;;0.70;0.50;;;22.10;1.00;;;;;;5086093;28;20541;-78
2022/06/21 09:44:03;;;;;;;0.90;0.50;;;22.50;1.00;;;;;;5071354;28;20542;-76
2022/06/21 09:46:38;;;;;;;1.30;0.47;;;22.60;1.00;;;;;;5085481;28;20849;-77
2022/06/21 09:49:15;;;;;;;1.03;0.60;;;22.50;1.00;;;;;;5073131;28;20453;-76
2022/06/21 09:51:49;;;;;;;1.10;0.50;;;22.50;1.00;;;;;;5078404;28;20453;-75
2022/06/21 09:54:32;;;;;;;0.70;0.50;;;22.70;1.00;;;;;;5091864;28;20755;-74
2022/06/21 09:57:18;;;;;;;2.30;0.60;;;22.90;1.00;;;;;;5085169;28;20469;-74
2022/06/21 09:59:51;;;;;;;0.80;0.50;;;22.90;1.00;;;;;;5073045;28;20450;-73
2022/06/21 10:02:27;;;;;;;0.60;0.50;;;22.70;1.00;;;;;;5084229;28;20848;-76
2022/06/21 10:05:04;;;;;;;0.97;0.60;;;23.00;1.00;;;;;;5087039;28;20456;-76
2022/06/21 10:07:53;;;;;;;0.77;0.57;;;23.50;1.00;;;;;;5112975;28;20484;-76
2022/06/21 10:10:36;;;;;;;1.40;0.60;;;23.60;1.00;;;;;;5113013;28;20468;-76
2022/06/21 10:13:16;;;;;;;0.80;0.67;;;23.70;1.00;;;;;;5113845;28;20489;-75
2022/06/21 10:15:51;;;;;;;0.80;0.60;;;24.00;1.00;;;;;;5113391;28;21286;-75
2022/06/21 10:18:47;;;;;;;0.77;0.60;;;24.20;1.00;;;;;;5110768;28;20440;-75
2022/06/21 10:21:37;;;;;;;1.70;0.60;;;24.50;1.00;;;;;;5112903;28;20628;-74
2022/06/21 10:24:44;;;;;;;5.13;0.60;;;24.20;1.00;;;;;;5093408;28;20815;-76
2022/06/21 10:27:43;;;;;;;1.10;0.70;;;24.50;1.00;;;;;;5110988;28;20482;-74
2022/06/21 10:30:43;;;;;;;0.80;0.50;;;25.00;1.00;;;;;;5113712;28;20513;-75
2022/06/21 10:33:35;;;;;;;1.40;0.50;;;25.10;1.00;;;;;;5113945;28;20463;-74
2022/06/21 10:36:17;;;;;;;1.00;0.63;;;25.00;1.00;;;;;;5114304;28;21928;-74
2022/06/21 10:39:07;;;;;;;1.00;0.70;;;25.20;1.00;;;;;;5113877;28;20428;-75
2022/06/21 10:42:46;;;;;;;2.40;0.53;;;25.60;1.00;;;;;;5112288;28;20484;-73
2022/06/21 10:44:43;;;;;;;0.73;0.60;;;25.70;1.00;;;;;;5113347;28;20428;-72
2022/06/21 10:47:24;;;;;;;1.47;0.50;;;25.90;1.00;;;;;;5113612;28;20476;-71
2022/06/21 10:50:24;;;;;;;0.90;0.70;;;26.00;1.00;;;;;;5113217;28;20532;-73
2022/06/21 10:53:07;;;;;;;0.60;0.50;;;26.50;1.00;;;;;;5114696;28;20483;-74
2022/06/21 10:57:09;;;;;;;0.90;0.60;;;26.80;1.00;;;;;;5075428;28;20512;-73
2022/06/21 10:58:48;;;;;;;0.80;0.70;;;26.80;1.00;;;;;;5073261;28;20439;-73
2022/06/21 11:01:23;;;;;;;0.80;0.70;;;27.10;1.00;;;;;;5070693;28;20454;-72
2022/06/21 11:04:20;;;;;;;2.20;0.70;;;26.70;1.00;;;;;;5070874;28;20820;-73
2022/06/21 11:06:55;;;;;;;1.00;0.70;;;26.90;1.00;;;;;;5066705;28;20588;-74
2022/06/21 11:09:27;;;;;;;0.87;0.60;;;26.80;1.00;;;;;;5069731;28;20482;-72
2022/06/21 11:12:52;;;;;;;2.70;0.70;;;27.00;1.00;;;;;;5069937;28;20747;-73
2022/06/21 11:14:58;;;;;;;1.60;0.70;;;27.30;1.00;;;;;;5068071;28;20441;-72
2022/06/21 11:17:33;;;;;;;0.80;0.50;;;27.40;1.00;;;;;;5071231;28;20846;-73
2022/06/21 11:20:05;;;;;;;0.90;0.70;;;27.10;1.00;;;;;;5071297;28;20503;-74
2022/06/21 11:22:45;;;;;;;1.00;0.60;;;26.80;1.00;;;;;;5071161;28;20576;-73
2022/06/21 11:25:27;;;;;;;0.77;0.70;;;26.60;1.00;;;;;;5071772;28;20446;-73
2022/06/21 11:28:02;;;;;;;0.80;0.60;;;26.90;1.00;;;;;;5069521;28;20586;-72
2022/06/21 11:30:39;;;;;;;0.83;0.60;;;26.90;1.00;;;;;;5072692;28;20529;-74
2022/06/21 11:33:13;;;;;;;1.93;0.60;;;26.80;1.00;;;;;;5072797;28;20553;-73
2022/06/21 11:35:49;;;;;;;0.90;0.60;;;27.00;1.00;;;;;;5073801;28;20546;-74
2022/06/21 11:38:32;;;;;;;0.80;0.57;;;27.40;1.00;;;;;;5054073;28;20892;-72
2022/06/21 11:41:06;;;;;;;2.17;0.60;;;27.20;1.00;;;;;;5072357;28;20769;-72
2022/06/21 11:43:52;;;;;;;1.90;0.60;;;27.00;1.00;;;;;;5071533;28;20474;-73
2022/06/21 11:46:30;;;;;;;1.00;0.80;;;26.90;1.00;;;;;;5072001;28;20450;-72
2022/06/21 11:49:34;;;;;;;1.00;0.70;;;27.00;1.00;;;;;;5072334;28;20878;-72
2022/06/21 11:52:26;;;;;;;1.10;0.70;;;27.70;1.00;;;;;;5073313;28;20822;-73
2022/06/21 11:55:04;;;;;;;0.90;0.80;;;28.30;1.00;;;;;;5052778;28;20450;-74
2022/06/21 11:57:39;;;;;;;1.57;0.70;;;28.70;1.00;;;;;;5070868;28;21043;-74
2022/06/21 12:00:16;;;;;;;0.80;0.70;;;28.60;1.00;;;;;;5069304;28;20892;-74
2022/06/21 12:02:47;;;;;;;0.70;0.67;;;28.60;1.00;;;;;;5069513;28;20456;-74
2022/06/21 12:05:27;;;;;;;0.90;0.70;;;28.70;1.00;;;;;;5071140;28;20475;-74
2022/06/21 12:08:01;;;;;;;1.10;0.60;;;28.50;1.00;;;;;;5068915;28;20799;-74
2022/06/21 12:10:50;;;;;;;0.80;0.70;;;28.30;1.00;;;;;;5070777;28;20445;-73
2022/06/21 12:13:34;;;;;;;0.90;0.80;;;27.90;1.00;;;;;;5072713;28;20837;-73
2022/06/21 12:16:22;;;;;;;1.20;0.80;;;27.80;1.00;;;;;;5071493;28;20531;-73
2022/06/21 12:18:57;;;;;;;0.90;0.80;;;27.50;1.00;;;;;;5071576;28;20485;-74
2022/06/21 12:21:29;;;;;;;2.40;0.80;;;27.40;1.00;;;;;;5071518;28;20571;-75
2022/06/21 12:23:59;;;;;;;1.00;0.83;;;27.30;1.00;;;;;;5072544;28;20447;-74
2022/06/21 12:26:30;;;;;;;1.33;0.80;;;27.10;1.00;;;;;;5071980;28;20454;-74
2022/06/21 12:29:00;;;;;;;1.93;0.80;;;27.30;1.00;;;;;;5071904;28;20544;-78
2022/06/21 12:31:30;;;;;;;1.00;0.80;;;27.50;1.00;;;;;;5072441;28;20824;-78
2022/06/21 12:34:02;;;;;;;1.53;0.90;;;27.80;1.00;;;;;;5072767;28;20537;-79
2022/06/21 12:36:40;;;;;;;2.00;0.77;;;28.00;1.00;;;;;;5074844;28;20920;-79
2022/06/21 12:39:13;;;;;;;1.00;0.80;;;27.80;1.00;;;;;;5075135;28;20889;-79
2022/06/21 12:41:54;;;;;;;3.00;2.70;;;27.00;1.00;;;;;;5092177;28;20872;-80
2022/06/21 12:44:38;;;;;;;1.27;0.93;;;27.10;1.00;;;;;;5090557;28;20780;-77
2022/06/21 12:47:21;;;;;;;1.43;0.80;;;27.10;1.00;;;;;;5091162;28;20543;-77
2022/06/21 12:50:36;;;;;;;2.50;0.93;;;26.50;1.00;;;;;;5091552;28;20609;-74
2022/06/21 12:53:19;;;;;;;1.70;0.83;;;26.50;1.00;;;;;;5088772;28;20445;-74
2022/06/21 12:55:59;;;;;;;1.20;0.90;;;26.50;1.00;;;;;;5089548;28;20454;-74
2022/06/21 12:58:59;;;;;;;0.97;0.87;;;26.70;1.00;;;;;;5089368;28;20437;-74
2022/06/21 13:01:34;;;;;;;2.00;0.90;;;26.70;1.00;;;;;;5090401;28;20536;-75
2022/06/21 13:04:38;;;;;;;1.10;0.90;;;27.00;1.00;;;;;;5090139;28;20846;-76
2022/06/21 13:07:26;;;;;;;0.80;0.70;;;27.00;1.00;;;;;;5068573;28;20900;-76
2022/06/21 13:10:24;;;;;;;1.30;1.00;;;27.50;1.00;;;;;;5094353;28;20457;-76
2022/06/21 13:13:26;;;;;;;1.17;0.90;;;27.90;1.00;;;;;;5076933;28;20469;-78
2022/06/21 13:16:06;;;;;;;1.77;1.00;;;28.30;1.00;;;;;;5095196;28;20453;-77
2022/06/21 13:18:55;;;;;;;1.23;1.00;;;28.60;1.00;;;;;;5095994;28;20450;-75
2022/06/21 13:21:31;;;;;;;1.00;0.90;;;28.40;1.00;;;;;;5095364;28;20481;-76
2022/06/21 13:24:28;;;;;;;0.97;0.87;;;28.70;1.00;;;;;;5094423;28;21073;-76
2022/06/21 13:27:11;;;;;;;0.90;0.80;;;28.70;1.00;;;;;;5084887;28;20453;-76
2022/06/21 13:29:58;;;;;;;1.20;1.00;;;28.90;1.00;;;;;;5096247;28;20453;-77
2022/06/21 13:32:41;;;;;;;2.03;1.10;;;28.70;1.00;;;;;;5096103;28;20475;-78
2022/06/21 13:35:22;;;;;;;2.80;1.00;;;28.30;1.00;;;;;;5095762;28;20783;-76
2022/06/21 13:37:59;;;;;;;1.23;1.07;;;28.50;1.00;;;;;;5096991;28;20453;-76
2022/06/21 13:40:30;;;;;;;1.13;0.90;;;28.90;1.00;;;;;;5096370;28;20710;-76
2022/06/21 13:43:02;;;;;;;1.10;0.90;;;29.20;1.00;;;;;;5096138;28;20770;-77
2022/06/21 13:45:43;;;;;;;1.17;0.80;;;29.30;1.00;;;;;;5097989;28;20449;-77
2022/06/21 13:48:18;;;;;;;1.10;1.00;;;29.50;1.00;;;;;;5100181;28;20451;-76
2022/06/21 13:50:52;;;;;;;0.90;0.80;;;29.80;1.00;;;;;;5100354;28;20527;-76
2022/06/21 13:53:27;;;;;;;1.10;1.00;;;30.20;1.00;;;;;;5100372;28;20458;-79